createdAt,value
2016-05-25T00:00:10.969Z,11.44
2016-05-25T00:01:11.753Z,11.51
2016-05-25T00:02:11.036Z,11.51
2016-05-25T00:03:11.071Z,11.6
2016-05-25T00:04:11.089Z,11.63
2016-05-25T00:05:11.124Z,11.57
2016-05-25T00:06:11.158Z,11.48
2016-05-25T00:07:11.191Z,11.63
2016-05-25T00:08:11.225Z,11.72
2016-05-25T00:09:11.275Z,11.5
2016-05-25T00:10:11.308Z,11.48
2016-05-25T00:11:11.327Z,11.55
2016-05-25T00:12:11.360Z,11.68
2016-05-25T00:13:11.395Z,11.72
2016-05-25T00:14:11.413Z,11.69
2016-05-25T00:15:11.462Z,11.6
2016-05-25T00:16:11.341Z,11.72
2016-05-25T00:17:11.531Z,11.68
2016-05-25T00:18:11.549Z,11.7
2016-05-25T00:19:11.442Z,11.68
2016-05-25T00:20:11.617Z,11.63
2016-05-25T00:21:11.651Z,11.66
2016-05-25T00:22:11.684Z,11.69
2016-05-25T00:23:11.718Z,11.69
2016-05-25T00:24:11.753Z,11.7
2016-05-25T00:25:11.787Z,11.69
2016-05-25T00:26:11.820Z,11.7
2016-05-25T00:27:11.698Z,11.66
2016-05-25T00:28:11.717Z,11.55
2016-05-25T00:29:11.907Z,11.57
2016-05-25T00:30:11.956Z,11.59
2016-05-25T00:31:12.147Z,11.52
2016-05-25T00:32:11.867Z,11.55
2016-05-25T00:33:12.058Z,11.59
2016-05-25T00:34:12.077Z,11.63
2016-05-25T00:35:12.110Z,11.57
2016-05-25T00:36:11.988Z,11.6
2016-05-25T00:37:12.177Z,11.5
2016-05-25T00:38:12.228Z,11.57
2016-05-25T00:39:12.231Z,11.52
2016-05-25T00:40:12.280Z,11.54
2016-05-25T00:41:12.299Z,11.57
2016-05-25T00:42:12.332Z,11.57
2016-05-25T00:43:12.054Z,11.55
2016-05-25T00:44:12.399Z,11.62
2016-05-25T00:45:12.293Z,11.63
2016-05-25T00:46:12.468Z,11.47
2016-05-25T00:47:12.362Z,11.59
2016-05-25T00:48:12.552Z,11.65
2016-05-25T00:49:12.554Z,11.6
2016-05-25T00:50:12.604Z,11.69
2016-05-25T00:51:12.637Z,11.62
2016-05-25T00:52:12.671Z,11.65
2016-05-25T00:53:12.721Z,11.86
2016-05-25T00:54:12.739Z,11.7
2016-05-25T00:55:12.774Z,11.69
2016-05-25T00:56:12.651Z,11.65
2016-05-25T00:57:12.825Z,11.59
2016-05-25T00:58:12.719Z,11.51
2016-05-25T00:59:12.894Z,11.57
2016-05-25T01:00:12.928Z,11.5
2016-05-25T01:01:12.820Z,11.51
2016-05-25T01:02:12.839Z,11.48
2016-05-25T01:03:12.873Z,11.47
2016-05-25T01:04:13.078Z,11.5
2016-05-25T01:05:13.081Z,11.47
2016-05-25T01:06:13.130Z,11.47
2016-05-25T01:07:13.180Z,11.44
2016-05-25T01:08:13.183Z,11.45
2016-05-25T01:09:13.077Z,11.47
2016-05-25T01:10:13.252Z,11.57
2016-05-25T01:11:13.285Z,11.44
2016-05-25T01:12:13.335Z,11.55
2016-05-25T01:13:13.352Z,11.55
2016-05-25T01:14:13.387Z,11.51
2016-05-25T01:15:13.437Z,11.63
2016-05-25T01:16:13.423Z,11.68
2016-05-25T01:17:13.504Z,11.69
2016-05-25T01:18:13.523Z,11.68
2016-05-25T01:19:13.557Z,11.69
2016-05-25T01:20:13.590Z,11.66
2016-05-25T01:21:13.640Z,11.72
2016-05-25T01:22:13.659Z,11.69
2016-05-25T01:23:13.536Z,11.72
2016-05-25T01:24:13.742Z,11.66
2016-05-25T01:25:13.745Z,11.62
2016-05-25T01:26:13.778Z,11.72
2016-05-25T01:27:13.657Z,11.55
2016-05-25T01:28:13.847Z,11.5
2016-05-25T01:29:13.725Z,11.57
2016-05-25T01:30:13.914Z,11.59
2016-05-25T01:31:13.808Z,11.51
2016-05-25T01:32:13.826Z,11.65
2016-05-25T01:33:14.016Z,11.65
2016-05-25T01:34:14.050Z,11.72
2016-05-25T01:35:14.084Z,11.66
2016-05-25T01:36:13.961Z,11.68
2016-05-25T01:37:14.152Z,11.59
2016-05-25T01:38:14.185Z,11.52
2016-05-25T01:39:14.204Z,11.52
2016-05-25T01:40:14.255Z,11.5
2016-05-25T01:41:14.272Z,11.5
2016-05-25T01:42:14.338Z,11.59
2016-05-25T01:43:14.355Z,11.57
2016-05-25T01:44:14.374Z,11.54
2016-05-25T01:45:14.439Z,11.51
2016-05-25T01:46:14.816Z,11.6
2016-05-25T01:47:14.507Z,11.48
2016-05-25T01:48:14.510Z,11.51
2016-05-25T01:49:14.544Z,11.54
2016-05-25T01:50:14.577Z,11.48
2016-05-25T01:51:14.611Z,11.44
2016-05-25T01:52:14.490Z,11.44
2016-05-25T01:53:14.679Z,11.45
2016-05-25T01:54:14.698Z,11.51
2016-05-25T01:55:14.606Z,11.43
2016-05-25T01:56:14.781Z,11.45
2016-05-25T01:57:14.800Z,11.45
2016-05-25T01:58:14.833Z,11.45
2016-05-25T01:59:14.867Z,11.5
2016-05-25T02:00:14.901Z,11.4
2016-05-25T02:01:15.357Z,11.48
2016-05-25T02:02:14.970Z,11.48
2016-05-25T02:03:15.003Z,11.47
2016-05-25T02:04:15.037Z,11.51
2016-05-25T02:05:15.055Z,11.5
2016-05-25T02:06:15.105Z,11.51
2016-05-25T02:07:14.983Z,11.47
2016-05-25T02:08:15.157Z,11.48
2016-05-25T02:09:15.191Z,11.59
2016-05-25T02:10:15.085Z,11.59
2016-05-25T02:11:14.947Z,11.54
2016-05-25T02:12:15.309Z,11.57
2016-05-25T02:13:15.327Z,11.51
2016-05-25T02:14:15.377Z,11.45
2016-05-25T02:15:15.394Z,11.59
2016-05-25T02:16:15.429Z,11.62
2016-05-25T02:17:15.993Z,11.59
2016-05-25T02:18:15.496Z,11.55
2016-05-25T02:19:15.515Z,11.51
2016-05-25T02:20:15.549Z,11.52
2016-05-25T02:21:15.598Z,11.6
2016-05-25T02:22:15.617Z,11.6
2016-05-25T02:23:15.651Z,11.5
2016-05-25T02:24:15.685Z,11.45
2016-05-25T02:25:15.718Z,11.57
2016-05-25T02:26:15.753Z,11.45
2016-05-25T02:27:15.786Z,11.55
2016-05-25T02:28:15.820Z,11.44
2016-05-25T02:29:15.853Z,11.47
2016-05-25T02:30:15.888Z,11.59
2016-05-25T02:31:16.812Z,11.48
2016-05-25T02:32:15.956Z,11.55
2016-05-25T02:33:16.006Z,11.5
2016-05-25T02:34:16.009Z,11.48
2016-05-25T02:35:16.073Z,11.54
2016-05-25T02:36:16.092Z,11.4
2016-05-25T02:37:16.125Z,11.45
2016-05-25T02:38:16.144Z,11.41
2016-05-25T02:39:16.021Z,11.29
2016-05-25T02:40:16.212Z,11.29
2016-05-25T02:41:16.246Z,11.33
2016-05-25T02:42:16.280Z,11.44
2016-05-25T02:43:16.314Z,11.44
2016-05-25T02:44:16.347Z,11.35
2016-05-25T02:45:16.382Z,11.26
2016-05-25T02:46:16.275Z,11.4
2016-05-25T02:47:16.465Z,11.41
2016-05-25T02:48:16.483Z,11.54
2016-05-25T02:49:16.501Z,11.52
2016-05-25T02:50:16.535Z,11.44
2016-05-25T02:51:16.586Z,11.47
2016-05-25T02:52:16.603Z,11.54
2016-05-25T02:53:16.638Z,11.48
2016-05-25T02:54:16.687Z,11.45
2016-05-25T02:55:16.549Z,11.45
2016-05-25T02:56:16.740Z,11.4
2016-05-25T02:57:16.773Z,11.41
2016-05-25T02:58:16.807Z,11.4
2016-05-25T02:59:16.841Z,11.43
2016-05-25T03:00:16.875Z,11.4
2016-05-25T03:01:16.972Z,11.43
2016-05-25T03:02:17.006Z,11.4
2016-05-25T03:03:17.008Z,11.44
2016-05-25T03:04:16.995Z,11.41
2016-05-25T03:05:17.107Z,11.33
2016-05-25T03:06:17.064Z,11.44
2016-05-25T03:07:17.097Z,11.44
2016-05-25T03:08:17.131Z,11.48
2016-05-25T03:09:17.164Z,11.5
2016-05-25T03:10:17.183Z,11.48
2016-05-25T03:11:17.216Z,11.43
2016-05-25T03:12:17.252Z,11.36
2016-05-25T03:13:17.300Z,11.37
2016-05-25T03:14:17.319Z,11.32
2016-05-25T03:15:17.384Z,11.33
2016-05-25T03:16:17.840Z,11.43
2016-05-25T03:17:17.452Z,11.4
2016-05-25T03:18:17.471Z,11.5
2016-05-25T03:19:17.488Z,11.5
2016-05-25T03:20:17.366Z,11.44
2016-05-25T03:21:17.401Z,11.33
2016-05-25T03:22:17.591Z,11.26
2016-05-25T03:23:17.624Z,11.22
2016-05-25T03:24:17.659Z,11.22
2016-05-25T03:25:17.677Z,11.33
2016-05-25T03:26:17.711Z,11.35
2016-05-25T03:27:17.760Z,11.4
2016-05-25T03:28:17.638Z,11.4
2016-05-25T03:29:17.812Z,11.41
2016-05-25T03:30:17.690Z,11.44
2016-05-25T03:31:17.896Z,11.41
2016-05-25T03:32:18.101Z,11.36
2016-05-25T03:33:17.933Z,11.35
2016-05-25T03:34:17.967Z,11.35
2016-05-25T03:35:18.016Z,11.3
2016-05-25T03:36:18.050Z,11.37
2016-05-25T03:37:18.084Z,11.37
2016-05-25T03:38:17.961Z,11.36
2016-05-25T03:39:17.980Z,11.51
2016-05-25T03:40:18.186Z,11.44
2016-05-25T03:41:18.204Z,11.45
2016-05-25T03:42:18.238Z,11.4
2016-05-25T03:43:38.491Z,11.43
2016-05-25T03:44:18.305Z,11.4
2016-05-25T03:45:18.340Z,11.35
2016-05-25T03:46:18.061Z,11.3
2016-05-25T03:47:18.408Z,11.35
2016-05-25T03:48:18.427Z,11.41
2016-05-25T03:49:18.319Z,11.43
2016-05-25T03:50:18.494Z,11.41
2016-05-25T03:51:18.543Z,11.41
2016-05-25T03:52:18.562Z,11.44
2016-05-25T03:53:18.596Z,11.59
2016-05-25T03:54:18.629Z,11.45
2016-05-25T03:55:18.664Z,11.5
2016-05-25T03:56:18.698Z,11.52
2016-05-25T03:57:18.560Z,11.51
2016-05-25T03:58:18.610Z,11.45
2016-05-25T03:59:18.785Z,11.48
2016-05-25T04:00:18.818Z,11.5
2016-05-25T04:01:18.711Z,11.5
2016-05-25T04:02:18.902Z,11.55
2016-05-25T04:03:18.920Z,11.52
2016-05-25T04:04:18.954Z,11.52
2016-05-25T04:05:18.832Z,11.44
2016-05-25T04:06:19.037Z,11.51
2016-05-25T04:07:19.055Z,11.5
2016-05-25T04:08:19.090Z,11.43
2016-05-25T04:09:19.123Z,11.36
2016-05-25T04:10:19.001Z,11.51
2016-05-25T04:11:19.019Z,11.54
2016-05-25T04:12:19.225Z,11.51
2016-05-25T04:13:19.259Z,11.5
2016-05-25T04:14:19.137Z,11.47
2016-05-25T04:15:19.311Z,11.43
2016-05-25T04:16:19.205Z,11.57
2016-05-25T04:17:19.629Z,11.6
2016-05-25T04:18:19.413Z,11.54
2016-05-25T04:19:19.470Z,11.59
2016-05-25T04:20:19.544Z,11.55
2016-05-25T04:21:19.586Z,11.52
2016-05-25T04:22:19.628Z,11.52
2016-05-25T04:23:19.701Z,11.63
2016-05-25T04:24:19.759Z,11.51
2016-05-25T04:25:19.771Z,11.51
2016-05-25T04:26:19.813Z,11.65
2016-05-25T04:27:19.871Z,11.65
2016-05-25T04:28:19.898Z,11.54
2016-05-25T04:29:19.935Z,11.55
2016-05-25T04:30:19.972Z,11.68
2016-05-25T04:31:21.025Z,11.6
2016-05-25T04:32:19.890Z,11.72
2016-05-25T04:33:20.083Z,11.73
2016-05-25T04:34:19.962Z,11.48
2016-05-25T04:35:19.981Z,11.63
2016-05-25T04:36:20.189Z,11.59
2016-05-25T04:37:20.051Z,11.57
2016-05-25T04:38:20.244Z,11.48
2016-05-25T04:39:20.278Z,11.47
2016-05-25T04:40:20.311Z,11.54
2016-05-25T04:41:20.346Z,11.52
2016-05-25T04:42:20.381Z,11.52
2016-05-25T04:43:20.414Z,11.55
2016-05-25T04:44:20.449Z,11.68
2016-05-25T04:45:20.482Z,11.7
2016-05-25T04:46:20.423Z,11.66
2016-05-25T04:47:20.395Z,11.7
2016-05-25T04:48:20.584Z,11.72
2016-05-25T04:49:20.603Z,11.68
2016-05-25T04:50:20.637Z,11.66
2016-05-25T04:51:20.670Z,11.69
2016-05-25T04:52:20.548Z,11.52
2016-05-25T04:53:20.738Z,11.66
2016-05-25T04:54:20.773Z,11.69
2016-05-25T04:55:20.822Z,11.63
2016-05-25T04:56:20.840Z,11.65
2016-05-25T04:57:20.874Z,11.62
2016-05-25T04:58:20.924Z,11.68
2016-05-25T04:59:20.942Z,11.68
2016-05-25T05:00:20.805Z,11.66
2016-05-25T05:01:21.104Z,11.69
2016-05-25T05:02:20.888Z,11.6
2016-05-25T05:03:21.078Z,11.62
2016-05-25T05:04:21.096Z,11.65
2016-05-25T05:05:21.146Z,11.69
2016-05-25T05:06:21.163Z,11.57
2016-05-25T05:07:21.213Z,11.63
2016-05-25T05:08:21.232Z,11.59
2016-05-25T05:09:21.265Z,11.59
2016-05-25T05:10:21.299Z,11.55
2016-05-25T05:11:21.349Z,11.63
2016-05-25T05:12:21.368Z,11.68
2016-05-25T05:13:21.401Z,11.63
2016-05-25T05:14:21.420Z,11.66
2016-05-25T05:15:21.470Z,11.62
2016-05-25T05:16:21.645Z,11.7
2016-05-25T05:17:21.381Z,11.77
2016-05-25T05:18:21.571Z,11.84
2016-05-25T05:19:21.589Z,11.77
2016-05-25T05:20:21.468Z,11.81
2016-05-25T05:21:21.501Z,11.75
2016-05-25T05:22:21.692Z,11.78
2016-05-25T05:23:21.725Z,11.81
2016-05-25T05:24:21.759Z,11.8
2016-05-25T05:25:21.794Z,11.86
2016-05-25T05:26:21.828Z,11.9
2016-05-25T05:27:21.705Z,11.86
2016-05-25T05:28:21.895Z,11.84
2016-05-25T05:29:21.772Z,11.86
2016-05-25T05:30:21.947Z,11.87
2016-05-25T05:31:21.685Z,11.88
2016-05-25T05:32:22.031Z,11.87
2016-05-25T05:33:22.065Z,11.78
2016-05-25T05:34:22.099Z,11.91
2016-05-25T05:35:22.133Z,11.87
2016-05-25T05:36:21.995Z,11.91
2016-05-25T05:37:22.029Z,12.04
2016-05-25T05:38:22.219Z,11.97
2016-05-25T05:39:22.252Z,12.03
2016-05-25T05:40:22.287Z,11.99
2016-05-25T05:41:22.165Z,12.02
2016-05-25T05:42:22.198Z,12.12
2016-05-25T05:43:22.388Z,12.17
2016-05-25T05:44:22.422Z,12.17
2016-05-25T05:45:22.301Z,12.21
2016-05-25T05:46:22.334Z,12.31
2016-05-25T05:47:22.399Z,12.24
2016-05-25T05:48:22.559Z,12.31
2016-05-25T05:49:22.592Z,12.39
2016-05-25T05:50:22.611Z,12.42
2016-05-25T05:51:22.660Z,12.39
2016-05-25T05:52:22.678Z,12.31
2016-05-25T05:53:22.712Z,12.27
2016-05-25T05:54:22.746Z,12.42
2016-05-25T05:55:22.812Z,12.29
2016-05-25T05:56:22.814Z,12.42
2016-05-25T05:57:22.848Z,12.55
2016-05-25T05:58:22.898Z,12.54
2016-05-25T05:59:22.916Z,12.45
2016-05-25T06:00:22.950Z,12.43
2016-05-25T06:01:22.843Z,12.39
2016-05-25T06:02:22.877Z,12.35
2016-05-25T06:03:22.927Z,12.32
2016-05-25T06:04:23.101Z,12.22
2016-05-25T06:05:23.119Z,12.27
2016-05-25T06:06:23.154Z,12.06
2016-05-25T06:07:23.187Z,12.04
2016-05-25T06:08:23.066Z,12.15
2016-05-25T06:09:23.271Z,12.21
2016-05-25T06:10:23.290Z,12.21
2016-05-25T06:11:23.324Z,12.31
2016-05-25T06:12:23.341Z,12.4
2016-05-25T06:13:23.391Z,12.31
2016-05-25T06:14:23.425Z,12.37
2016-05-25T06:15:23.459Z,12.5
2016-05-25T06:16:23.493Z,12.5
2016-05-25T06:17:23.511Z,12.62
2016-05-25T06:18:23.405Z,12.61
2016-05-25T06:19:23.595Z,12.75
2016-05-25T06:20:23.456Z,12.78
2016-05-25T06:21:23.663Z,12.8
2016-05-25T06:22:23.681Z,12.64
2016-05-25T06:23:27.246Z,12.58
2016-05-25T06:24:23.593Z,12.78
2016-05-25T06:25:23.783Z,12.73
2016-05-25T06:26:23.833Z,12.8
2016-05-25T06:27:23.850Z,12.73
2016-05-25T06:28:26.244Z,12.76
2016-05-25T06:29:23.933Z,12.76
2016-05-25T06:30:23.952Z,12.67
2016-05-25T06:31:24.189Z,12.73
2016-05-25T06:32:24.036Z,12.62
2016-05-25T06:33:23.898Z,12.65
2016-05-25T06:34:24.105Z,12.72
2016-05-25T06:35:24.138Z,12.62
2016-05-25T06:36:24.172Z,12.58
2016-05-25T06:37:24.206Z,12.55
2016-05-25T06:38:28.896Z,12.57
2016-05-25T06:39:24.102Z,12.5
2016-05-25T06:40:24.307Z,12.55
2016-05-25T06:41:24.342Z,12.53
2016-05-25T06:42:24.376Z,12.57
2016-05-25T06:43:24.238Z,12.55
2016-05-25T06:44:24.443Z,12.61
2016-05-25T06:45:24.493Z,12.7
2016-05-25T06:46:24.745Z,12.78
2016-05-25T06:47:24.545Z,12.8
2016-05-25T06:48:32.142Z,12.78
2016-05-25T06:49:24.612Z,12.8
2016-05-25T06:50:24.632Z,12.73
2016-05-25T06:51:24.665Z,12.73
2016-05-25T06:52:24.698Z,12.87
2016-05-25T06:53:26.406Z,12.91
2016-05-25T06:54:24.783Z,12.87
2016-05-25T06:55:24.817Z,12.8
2016-05-25T06:56:24.851Z,12.75
2016-05-25T06:57:24.884Z,12.8
2016-05-25T06:58:26.919Z,12.76
2016-05-25T06:59:24.936Z,12.8
2016-05-25T07:00:24.814Z,12.76
2016-05-25T07:01:25.458Z,12.85
2016-05-25T07:02:25.414Z,12.79
2016-05-25T07:03:28.463Z,12.78
2016-05-25T07:04:25.122Z,12.94
2016-05-25T07:05:25.156Z,12.95
2016-05-25T07:06:25.190Z,13
2016-05-25T07:07:25.224Z,13.03
2016-05-25T07:08:26.805Z,13.18
2016-05-25T07:09:25.291Z,13.16
2016-05-25T07:10:25.326Z,13.27
2016-05-25T07:11:25.360Z,13.37
2016-05-25T07:12:25.377Z,13.49
2016-05-25T07:13:33.334Z,13.56
2016-05-25T07:14:25.462Z,13.6
2016-05-25T07:15:25.339Z,13.42
2016-05-25T07:16:25.592Z,13.39
2016-05-25T07:17:25.610Z,13.42
2016-05-25T07:18:32.082Z,13.35
2016-05-25T07:19:25.475Z,13.28
2016-05-25T07:20:25.649Z,13.27
2016-05-25T07:21:25.699Z,13.25
2016-05-25T07:22:25.734Z,13.33
2016-05-25T07:23:28.454Z,13.27
2016-05-25T07:24:25.817Z,13.13
2016-05-25T07:25:25.678Z,13.01
2016-05-25T07:26:25.728Z,13.03
2016-05-25T07:27:25.887Z,13.05
2016-05-25T07:28:33.327Z,13
2016-05-25T07:29:25.970Z,12.95
2016-05-25T07:30:25.848Z,12.97
2016-05-25T07:31:26.039Z,12.97
2016-05-25T07:32:26.775Z,13
2016-05-25T07:33:31.013Z,12.98
2016-05-25T07:34:26.000Z,13.03
2016-05-25T07:35:26.174Z,13.05
2016-05-25T07:36:26.225Z,13.16
2016-05-25T07:37:26.242Z,13.25
2016-05-25T07:38:27.902Z,13.33
2016-05-25T07:39:26.154Z,13.3
2016-05-25T07:40:26.360Z,13.37
2016-05-25T07:41:26.237Z,13.3
2016-05-25T07:42:26.427Z,13.37
2016-05-25T07:43:26.399Z,13.31
2016-05-25T07:44:26.496Z,13.31
2016-05-25T07:45:26.529Z,13.39
2016-05-25T07:46:26.579Z,13.13
2016-05-25T07:47:28.426Z,13.27
2016-05-25T07:48:27.584Z,13.28
2016-05-25T07:49:26.666Z,13.35
2016-05-25T07:50:26.699Z,13.33
2016-05-25T07:51:26.733Z,13.37
2016-05-25T07:52:26.767Z,13.33
2016-05-25T07:53:28.551Z,13.3
2016-05-25T07:54:26.695Z,13.31
2016-05-25T07:55:26.729Z,13.37
2016-05-25T07:56:26.903Z,13.37
2016-05-25T07:57:32.967Z,13.39
2016-05-25T07:58:27.393Z,13.54
2016-05-25T07:59:27.004Z,13.56
2016-05-25T08:00:26.897Z,13.56
2016-05-25T08:01:27.306Z,13.56
2016-05-25T08:02:27.872Z,13.59
2016-05-25T08:03:26.984Z,13.54
2016-05-25T08:04:27.175Z,13.53
2016-05-25T08:05:27.067Z,13.37
2016-05-25T08:06:27.258Z,13.28
2016-05-25T08:07:27.276Z,13.3
2016-05-25T08:08:28.372Z,13.31
2016-05-25T08:09:27.344Z,13.33
2016-05-25T08:10:27.378Z,13.31
2016-05-25T08:11:27.412Z,13.3
2016-05-25T08:12:27.461Z,13.54
2016-05-25T08:13:29.229Z,13.62
2016-05-25T08:14:27.357Z,13.62
2016-05-25T08:15:27.407Z,13.81
2016-05-25T08:16:27.457Z,13.71
2016-05-25T08:17:27.694Z,13.74
2016-05-25T08:18:29.618Z,13.72
2016-05-25T08:19:27.699Z,13.7
2016-05-25T08:20:27.733Z,13.6
2016-05-25T08:21:27.610Z,13.46
2016-05-25T08:22:30.879Z,13.49
2016-05-25T08:23:27.851Z,13.72
2016-05-25T08:24:27.712Z,13.54
2016-05-25T08:25:27.903Z,13.59
2016-05-25T08:26:27.936Z,13.62
2016-05-25T08:27:27.970Z,13.59
2016-05-25T08:28:27.848Z,13.6
2016-05-25T08:29:28.039Z,13.59
2016-05-25T08:30:28.072Z,13.56
2016-05-25T08:31:28.169Z,13.63
2016-05-25T08:32:28.656Z,13.71
2016-05-25T08:33:29.221Z,13.7
2016-05-25T08:34:28.208Z,13.7
2016-05-25T08:35:28.258Z,13.68
2016-05-25T08:36:28.291Z,13.57
2016-05-25T08:37:29.186Z,13.62
2016-05-25T08:38:28.422Z,13.49
2016-05-25T08:39:28.394Z,13.47
2016-05-25T08:40:28.427Z,13.35
2016-05-25T08:41:28.305Z,13.28
2016-05-25T08:42:28.480Z,13.31
2016-05-25T08:43:29.513Z,13.35
2016-05-25T08:44:28.563Z,13.38
2016-05-25T08:45:28.597Z,13.33
2016-05-25T08:46:28.505Z,13.47
2016-05-25T08:47:28.837Z,13.54
2016-05-25T08:48:28.402Z,13.46
2016-05-25T08:49:28.748Z,13.52
2016-05-25T08:50:28.626Z,13.56
2016-05-25T08:51:28.816Z,13.62
2016-05-25T08:52:28.866Z,13.6
2016-05-25T08:53:28.712Z,13.59
2016-05-25T08:54:28.918Z,13.65
2016-05-25T08:55:28.952Z,13.72
2016-05-25T08:56:28.986Z,13.7
2016-05-25T08:57:29.004Z,13.77
2016-05-25T08:58:29.054Z,13.68
2016-05-25T08:59:28.932Z,13.52
2016-05-25T09:00:29.122Z,13.47
2016-05-25T09:01:29.406Z,13.46
2016-05-25T09:02:29.190Z,13.49
2016-05-25T09:03:29.223Z,13.52
2016-05-25T09:04:29.257Z,13.46
2016-05-25T09:05:29.292Z,13.39
2016-05-25T09:06:29.325Z,13.44
2016-05-25T09:07:29.219Z,13.37
2016-05-25T09:08:29.253Z,13.47
2016-05-25T09:09:29.442Z,13.49
2016-05-25T09:10:29.461Z,13.57
2016-05-25T09:11:29.495Z,13.63
2016-05-25T09:12:29.530Z,13.7
2016-05-25T09:13:30.860Z,13.53
2016-05-25T09:14:29.285Z,13.54
2016-05-25T09:15:29.631Z,13.42
2016-05-25T09:16:29.541Z,13.53
2016-05-25T09:17:30.682Z,13.5
2016-05-25T09:18:29.749Z,13.52
2016-05-25T09:19:29.782Z,13.46
2016-05-25T09:20:29.816Z,13.54
2016-05-25T09:21:29.850Z,13.56
2016-05-25T09:22:30.916Z,13.5
2016-05-25T09:23:29.949Z,13.53
2016-05-25T09:24:29.796Z,13.59
2016-05-25T09:25:29.829Z,13.7
2016-05-25T09:26:30.035Z,13.71
2016-05-25T09:27:32.084Z,13.74
2016-05-25T09:28:29.931Z,13.7
2016-05-25T09:29:30.121Z,13.89
2016-05-25T09:30:30.156Z,13.92
2016-05-25T09:31:30.049Z,13.89
2016-05-25T09:32:31.098Z,13.83
2016-05-25T09:33:30.257Z,13.85
2016-05-25T09:34:30.307Z,13.96
2016-05-25T09:35:30.325Z,14.18
2016-05-25T09:36:30.375Z,14.25
2016-05-25T09:37:30.408Z,14.15
2016-05-25T09:38:30.443Z,14.32
2016-05-25T09:39:30.477Z,14.28
2016-05-25T09:40:30.510Z,14.18
2016-05-25T09:41:30.561Z,14.3
2016-05-25T09:42:30.579Z,14.4
2016-05-25T09:43:30.613Z,14.59
2016-05-25T09:44:30.490Z,14.41
2016-05-25T09:45:30.539Z,14.44
2016-05-25T09:46:30.964Z,14.55
2016-05-25T09:47:32.483Z,14.48
2016-05-25T09:48:30.797Z,14.6
2016-05-25T09:49:30.519Z,14.77
2016-05-25T09:50:30.866Z,14.68
2016-05-25T09:51:30.884Z,14.53
2016-05-25T09:52:32.918Z,14.32
2016-05-25T09:53:30.827Z,14.37
2016-05-25T09:54:31.001Z,14.36
2016-05-25T09:55:31.035Z,14.53
2016-05-25T09:56:31.068Z,14.55
2016-05-25T09:57:31.104Z,14.54
2016-05-25T09:58:30.981Z,14.62
2016-05-25T09:59:31.061Z,14.63
2016-05-25T10:00:31.204Z,14.59
2016-05-25T10:01:31.082Z,14.65
2016-05-25T10:02:31.164Z,14.54
2016-05-25T10:03:31.322Z,14.54
2016-05-25T10:04:31.200Z,14.53
2016-05-25T10:05:31.390Z,14.45
2016-05-25T10:06:31.439Z,14.51
2016-05-25T10:07:33.067Z,14.58
2016-05-25T10:08:31.492Z,14.47
2016-05-25T10:09:31.542Z,14.54
2016-05-25T10:10:31.591Z,14.66
2016-05-25T10:11:31.453Z,14.84
2016-05-25T10:12:31.644Z,14.73
2016-05-25T10:13:31.677Z,14.78
2016-05-25T10:14:31.711Z,14.78
2016-05-25T10:15:31.745Z,14.88
2016-05-25T10:16:31.780Z,14.85
2016-05-25T10:17:32.001Z,15.04
2016-05-25T10:18:31.863Z,15.15
2016-05-25T10:19:31.896Z,15.02
2016-05-25T10:20:31.930Z,15.1
2016-05-25T10:21:31.996Z,15.19
2016-05-25T10:22:31.999Z,15.25
2016-05-25T10:23:31.876Z,15.51
2016-05-25T10:24:32.067Z,15.64
2016-05-25T10:25:32.116Z,15.7
2016-05-25T10:26:32.181Z,15.75
2016-05-25T10:27:32.028Z,15.72
2016-05-25T10:28:32.234Z,15.42
2016-05-25T10:29:32.267Z,15.51
2016-05-25T10:30:32.285Z,15.59
2016-05-25T10:31:32.335Z,15.67
2016-05-25T10:32:32.385Z,15.68
2016-05-25T10:33:32.403Z,15.58
2016-05-25T10:34:32.453Z,15.44
2016-05-25T10:35:32.331Z,15.43
2016-05-25T10:36:32.520Z,15.55
2016-05-25T10:37:32.554Z,15.39
2016-05-25T10:38:32.589Z,15.51
2016-05-25T10:39:32.622Z,15.51
2016-05-25T10:40:32.750Z,15.46
2016-05-25T10:41:32.565Z,15.52
2016-05-25T10:42:32.725Z,15.46
2016-05-25T10:43:32.789Z,15.46
2016-05-25T10:44:32.807Z,15.54
2016-05-25T10:45:32.685Z,15.52
2016-05-25T10:46:32.907Z,15.49
2016-05-25T10:47:33.050Z,15.35
2016-05-25T10:48:32.975Z,15.37
2016-05-25T10:49:32.993Z,15.28
2016-05-25T10:50:32.871Z,15.42
2016-05-25T10:51:32.905Z,15.57
2016-05-25T10:52:33.111Z,15.58
2016-05-25T10:53:32.988Z,15.4
2016-05-25T10:54:33.194Z,15.39
2016-05-25T10:55:33.228Z,15.47
2016-05-25T10:56:33.246Z,15.51
2016-05-25T10:57:33.124Z,15.64
2016-05-25T10:58:33.329Z,15.57
2016-05-25T10:59:33.379Z,15.55
2016-05-25T11:00:33.413Z,15.62
2016-05-25T11:01:33.275Z,15.95
2016-05-25T11:02:33.513Z,15.97
2016-05-25T11:03:33.515Z,16
2016-05-25T11:04:33.549Z,15.86
2016-05-25T11:05:33.584Z,15.94
2016-05-25T11:06:33.617Z,15.97
2016-05-25T11:07:33.510Z,16.08
2016-05-25T11:08:33.700Z,16.15
2016-05-25T11:09:33.734Z,16.16
2016-05-25T11:10:33.768Z,16.21
2016-05-25T11:11:33.818Z,16.2
2016-05-25T11:12:33.695Z,16.26
2016-05-25T11:13:33.729Z,16.29
2016-05-25T11:14:33.919Z,16.17
2016-05-25T11:15:33.797Z,15.97
2016-05-25T11:16:33.988Z,15.59
2016-05-25T11:17:34.037Z,15.39
2016-05-25T11:18:34.072Z,15.49
2016-05-25T11:19:33.949Z,15.58
2016-05-25T11:20:34.138Z,15.62
2016-05-25T11:21:34.189Z,15.72
2016-05-25T11:22:34.222Z,15.75
2016-05-25T11:23:34.257Z,15.72
2016-05-25T11:24:34.149Z,15.7
2016-05-25T11:25:34.341Z,15.72
2016-05-25T11:26:34.374Z,15.65
2016-05-25T11:27:34.423Z,15.73
2016-05-25T11:28:34.301Z,15.75
2016-05-25T11:29:34.491Z,15.73
2016-05-25T11:30:34.509Z,15.73
2016-05-25T11:31:34.559Z,15.7
2016-05-25T11:32:34.624Z,15.64
2016-05-25T11:33:34.627Z,15.65
2016-05-25T11:34:34.662Z,15.64
2016-05-25T11:35:34.710Z,15.59
2016-05-25T11:36:34.744Z,15.58
2016-05-25T11:37:34.810Z,15.37
2016-05-25T11:38:34.843Z,15.43
2016-05-25T11:39:34.862Z,15.58
2016-05-25T11:40:34.896Z,15.43
2016-05-25T11:41:34.930Z,15.59
2016-05-25T11:42:34.964Z,15.59
2016-05-25T11:43:34.872Z,15.52
2016-05-25T11:44:35.047Z,15.36
2016-05-25T11:45:35.097Z,15.44
2016-05-25T11:46:35.115Z,15.55
2016-05-25T11:47:35.165Z,15.52
2016-05-25T11:48:35.183Z,15.39
2016-05-25T11:49:35.233Z,15.28
2016-05-25T11:50:35.266Z,15.36
2016-05-25T11:51:35.300Z,15.43
2016-05-25T11:52:35.178Z,15.54
2016-05-25T11:53:35.368Z,15.73
2016-05-25T11:54:35.246Z,15.64
2016-05-25T11:55:35.436Z,15.58
2016-05-25T11:56:35.470Z,15.7
2016-05-25T11:57:35.519Z,15.68
2016-05-25T11:58:35.554Z,15.68
2016-05-25T11:59:35.447Z,15.77
2016-05-25T12:00:35.465Z,15.67
2016-05-25T12:01:35.530Z,15.67
2016-05-25T12:02:36.065Z,15.54
2016-05-25T12:03:35.599Z,15.52
2016-05-25T12:04:35.804Z,15.73
2016-05-25T12:05:35.822Z,16.02
2016-05-25T12:06:35.872Z,15.83
2016-05-25T12:07:35.890Z,16
2016-05-25T12:08:35.924Z,16.08
2016-05-25T12:09:35.959Z,16.24
2016-05-25T12:10:36.008Z,16.08
2016-05-25T12:11:36.056Z,16.05
2016-05-25T12:12:36.092Z,16.04
2016-05-25T12:13:35.812Z,15.61
2016-05-25T12:14:36.144Z,15.59
2016-05-25T12:15:36.177Z,15.67
2016-05-25T12:16:50.383Z,15.84
2016-05-25T12:17:36.527Z,15.83
2016-05-25T12:18:36.295Z,16.05
2016-05-25T12:19:36.329Z,15.84
2016-05-25T12:20:36.394Z,15.83
2016-05-25T12:21:36.272Z,15.86
2016-05-25T12:22:36.447Z,15.83
2016-05-25T12:23:36.496Z,15.86
2016-05-25T12:24:36.358Z,15.95
2016-05-25T12:25:36.563Z,16
2016-05-25T12:26:36.597Z,16.16
2016-05-25T12:27:36.632Z,15.88
2016-05-25T12:28:36.666Z,15.82
2016-05-25T12:29:36.715Z,15.9
2016-05-25T12:30:36.765Z,15.97
2016-05-25T12:31:36.845Z,16.05
2016-05-25T12:32:36.895Z,16.05
2016-05-25T12:33:36.866Z,16.1
2016-05-25T12:34:36.901Z,16.13
2016-05-25T12:35:36.934Z,15.95
2016-05-25T12:36:36.968Z,15.97
2016-05-25T12:37:37.018Z,16.12
2016-05-25T12:38:36.927Z,16.24
2016-05-25T12:39:37.086Z,16.46
2016-05-25T12:40:36.979Z,16.43
2016-05-25T12:41:37.169Z,16.39
2016-05-25T12:42:37.203Z,16.53
2016-05-25T12:43:37.237Z,16.53
2016-05-25T12:44:37.115Z,16.61
2016-05-25T12:45:37.320Z,16.64
2016-05-25T12:46:37.355Z,16.64
2016-05-25T12:47:38.029Z,16.76
2016-05-25T12:48:37.423Z,16.79
2016-05-25T12:49:37.301Z,16.72
2016-05-25T12:50:37.505Z,16.57
2016-05-25T12:51:37.383Z,16.53
2016-05-25T12:52:37.433Z,16.54
2016-05-25T12:53:37.624Z,16.61
2016-05-25T12:54:37.658Z,16.56
2016-05-25T12:55:37.550Z,16.54
2016-05-25T12:56:37.724Z,16.57